TLPL/UVF METAR and TAF weather

Enter ICAO airport designator
Station Type Date Time Source
TLPL METAR 2021/05/12 05:00 UTC NOAA

TLPL 120500Z 05018KT 9999 SCT024 27/25 Q1018


Station Type Date Time Source
TLPL Decoded METAR 2021/05/12 05:00 UTC NOAA

Hewanorra International Airport, Saint Lucia (TLPL) 13-45N 060-57W 10M
May 12, 2021 - 01:00 AM EDT / 2021.05.12 0500 UTC
Wind: from the NE (050 degrees) at 21 MPH (18 KT):0
Visibility: greater than 7 mile(s):0
Sky conditions: partly cloudy
Temperature: 80 F (27 C)
Dew Point: 77 F (25 C)
Relative Humidity: 88%
Pressure (altimeter): 30.06 in. Hg (1018 hPa)
ob: TLPL 120500Z 05018KT 9999 SCT024 27/25 Q1018
cycle: 5

Station Type Date Time Source
TLPL TAF 2021/05/11 18:12 UTC NOAA

TAF TLPL 111700Z 1118/1218 07018KT 9999 SCT026 PROB30
TEMPO 1118/1206 SHRA

Example: see airport list